sensor_id;sensor_type;location;lat;lon;timestamp;pressure;altitude;pressure_sealevel;temperature;humidity
30708;BME280;17458;48.958;8.284;2023-02-28T00:02:06;101218.47;;;2.52;52.63
30708;BME280;17458;48.958;8.284;2023-02-28T00:04:50;101225.44;;;2.52;52.66
30708;BME280;17458;48.958;8.284;2023-02-28T00:07:37;101221.03;;;2.61;52.12
30708;BME280;17458;48.958;8.284;2023-02-28T00:10:24;101221.72;;;2.22;53.06
30708;BME280;17458;48.958;8.284;2023-02-28T00:13:08;101217.16;;;2.38;52.55
30708;BME280;17458;48.958;8.284;2023-02-28T00:16:01;101217.06;;;2.56;52.43
30708;BME280;17458;48.958;8.284;2023-02-28T00:18:46;101212.31;;;2.52;52.88
30708;BME280;17458;48.958;8.284;2023-02-28T00:21:31;101213.72;;;2.12;53.57
30708;BME280;17458;48.958;8.284;2023-02-28T00:24:15;101213.69;;;2.21;53.12
30708;BME280;17458;48.958;8.284;2023-02-28T00:26:59;101213.41;;;2.45;52.68
30708;BME280;17458;48.958;8.284;2023-02-28T00:29:43;101211.66;;;2.54;52.65
30708;BME280;17458;48.958;8.284;2023-02-28T00:32:28;101218.50;;;2.16;53.38
30708;BME280;17458;48.958;8.284;2023-02-28T00:35:14;101221.47;;;2.10;53.78
30708;BME280;17458;48.958;8.284;2023-02-28T00:37:59;101211.25;;;2.49;53.11
30708;BME280;17458;48.958;8.284;2023-02-28T00:40:45;101218.31;;;2.23;53.34
30708;BME280;17458;48.958;8.284;2023-02-28T00:43:29;101208.31;;;2.46;52.87
30708;BME280;17458;48.958;8.284;2023-02-28T00:46:13;101210.16;;;2.20;53.08
30708;BME280;17458;48.958;8.284;2023-02-28T00:48:57;101220.50;;;2.46;52.99
30708;BME280;17458;48.958;8.284;2023-02-28T00:51:41;101224.28;;;2.31;52.99
30708;BME280;17458;48.958;8.284;2023-02-28T00:54:25;101219.72;;;2.20;53.19
30708;BME280;17458;48.958;8.284;2023-02-28T00:57:09;101224.44;;;2.60;52.48
30708;BME280;17458;48.958;8.284;2023-02-28T00:59:53;101223.19;;;2.37;52.99
30708;BME280;17458;48.958;8.284;2023-02-28T01:02:40;101212.19;;;2.41;53.13
30708;BME280;17458;48.958;8.284;2023-02-28T01:05:25;101217.16;;;2.38;53.03
30708;BME280;17458;48.958;8.284;2023-02-28T01:08:09;101220.84;;;2.40;53.16
30708;BME280;17458;48.958;8.284;2023-02-28T01:10:54;101216.72;;;2.34;53.46
30708;BME280;17458;48.958;8.284;2023-02-28T01:13:40;101219.41;;;2.53;52.80
30708;BME280;17458;48.958;8.284;2023-02-28T01:16:26;101222.22;;;2.09;53.66
30708;BME280;17458;48.958;8.284;2023-02-28T01:19:10;101218.06;;;2.39;52.82
30708;BME280;17458;48.958;8.284;2023-02-28T01:21:55;101222.63;;;2.23;53.34
30708;BME280;17458;48.958;8.284;2023-02-28T01:24:39;101218.34;;;2.51;53.01
30708;BME280;17458;48.958;8.284;2023-02-28T01:27:23;101224.44;;;2.60;52.67
30708;BME280;17458;48.958;8.284;2023-02-28T01:30:08;101221.81;;;1.96;54.04
30708;BME280;17458;48.958;8.284;2023-02-28T01:32:52;101218.41;;;2.33;53.35
30708;BME280;17458;48.958;8.284;2023-02-28T01:35:37;101217.41;;;2.14;53.88
30708;BME280;17458;48.958;8.284;2023-02-28T01:38:21;101214.59;;;1.85;54.54
30708;BME280;17458;48.958;8.284;2023-02-28T01:41:10;101222.34;;;2.11;53.79
30708;BME280;17458;48.958;8.284;2023-02-28T01:46:47;101215.94;;;1.99;54.33
30708;BME280;17458;48.958;8.284;2023-02-28T01:49:34;101223.28;;;2.11;54.52
30708;BME280;17458;48.958;8.284;2023-02-28T01:52:18;101212.38;;;2.07;54.35
30708;BME280;17458;48.958;8.284;2023-02-28T01:55:06;101215.47;;;2.03;54.48
30708;BME280;17458;48.958;8.284;2023-02-28T01:57:52;101216.91;;;2.27;53.99
30708;BME280;17458;48.958;8.284;2023-02-28T02:00:38;101214.13;;;1.89;54.82
30708;BME280;17458;48.958;8.284;2023-02-28T02:03:24;101211.34;;;1.88;54.95
30708;BME280;17458;48.958;8.284;2023-02-28T02:06:09;101212.91;;;1.86;55.26
30708;BME280;17458;48.958;8.284;2023-02-28T02:08:53;101205.38;;;1.80;55.30
30708;BME280;17458;48.958;8.284;2023-02-28T02:11:39;101204.88;;;1.93;55.06
30708;BME280;17458;48.958;8.284;2023-02-28T02:14:43;101201.84;;;2.16;54.84
30708;BME280;17458;48.958;8.284;2023-02-28T02:17:39;101206.22;;;1.98;55.16
30708;BME280;17458;48.958;8.284;2023-02-28T02:20:37;101201.63;;;1.95;55.27
30708;BME280;17458;48.958;8.284;2023-02-28T02:35:25;101202.41;;;1.94;55.93
30708;BME280;17458;48.958;8.284;2023-02-28T02:45:27;101187.34;;;2.19;54.85
30708;BME280;17458;48.958;8.284;2023-02-28T02:48:21;101196.13;;;1.75;56.08
30708;BME280;17458;48.958;8.284;2023-02-28T02:51:16;101198.25;;;1.96;55.59
30708;BME280;17458;48.958;8.284;2023-02-28T02:54:29;101202.00;;;1.81;56.01
30708;BME280;17458;48.958;8.284;2023-02-28T02:57:23;101198.31;;;1.70;56.34
30708;BME280;17458;48.958;8.284;2023-02-28T03:00:11;101207.03;;;1.88;56.13
30708;BME280;17458;48.958;8.284;2023-02-28T03:02:56;101207.22;;;1.72;56.12
30708;BME280;17458;48.958;8.284;2023-02-28T03:05:50;101207.44;;;2.10;55.58
30708;BME280;17458;48.958;8.284;2023-02-28T03:08:37;101202.59;;;1.78;56.26
30708;BME280;17458;48.958;8.284;2023-02-28T03:11:22;101212.47;;;1.72;56.03
30708;BME280;17458;48.958;8.284;2023-02-28T03:17:24;101204.88;;;2.29;55.31
30708;BME280;17458;48.958;8.284;2023-02-28T03:23:31;101200.22;;;1.99;55.60
30708;BME280;17458;48.958;8.284;2023-02-28T03:26:26;101194.59;;;2.13;56.01
30708;BME280;17458;48.958;8.284;2023-02-28T03:29:17;101199.69;;;2.11;56.01
30708;BME280;17458;48.958;8.284;2023-02-28T03:32:27;101187.13;;;2.26;55.28
30708;BME280;17458;48.958;8.284;2023-02-28T03:35:18;101194.53;;;2.30;55.68
30708;BME280;17458;48.958;8.284;2023-02-28T03:38:14;101189.00;;;2.27;55.76
30708;BME280;17458;48.958;8.284;2023-02-28T03:41:16;101189.69;;;2.43;55.16
30708;BME280;17458;48.958;8.284;2023-02-28T03:44:14;101188.97;;;2.55;54.76
30708;BME280;17458;48.958;8.284;2023-02-28T03:52:59;101197.00;;;2.29;55.73
30708;BME280;17458;48.958;8.284;2023-02-28T03:55:48;101194.34;;;2.37;55.41
30708;BME280;17458;48.958;8.284;2023-02-28T03:58:48;101191.59;;;2.27;55.83
30708;BME280;17458;48.958;8.284;2023-02-28T04:01:43;101191.13;;;2.31;55.78
30708;BME280;17458;48.958;8.284;2023-02-28T04:04:28;101191.56;;;2.08;55.96
30708;BME280;17458;48.958;8.284;2023-02-28T04:07:12;101189.19;;;2.20;55.85
30708;BME280;17458;48.958;8.284;2023-02-28T04:09:57;101187.66;;;1.77;56.93
30708;BME280;17458;48.958;8.284;2023-02-28T04:12:42;101194.50;;;2.66;55.09
30708;BME280;17458;48.958;8.284;2023-02-28T04:15:26;101188.84;;;2.26;55.60
30708;BME280;17458;48.958;8.284;2023-02-28T04:18:11;101193.22;;;2.17;56.23
30708;BME280;17458;48.958;8.284;2023-02-28T04:20:54;101184.50;;;1.99;56.20
30708;BME280;17458;48.958;8.284;2023-02-28T04:23:39;101185.81;;;2.21;56.20
30708;BME280;17458;48.958;8.284;2023-02-28T04:26:23;101189.13;;;2.29;55.85
30708;BME280;17458;48.958;8.284;2023-02-28T04:29:07;101195.69;;;2.15;56.22
30708;BME280;17458;48.958;8.284;2023-02-28T04:31:52;101187.94;;;1.89;56.91
30708;BME280;17458;48.958;8.284;2023-02-28T04:34:41;101187.13;;;1.99;56.38
30708;BME280;17458;48.958;8.284;2023-02-28T04:37:25;101180.34;;;2.28;55.91
30708;BME280;17458;48.958;8.284;2023-02-28T04:40:12;101198.78;;;2.11;56.39
30708;BME280;17458;48.958;8.284;2023-02-28T04:42:56;101193.41;;;2.09;56.27
30708;BME280;17458;48.958;8.284;2023-02-28T04:45:40;101191.81;;;2.20;56.19
30708;BME280;17458;48.958;8.284;2023-02-28T04:48:25;101190.13;;;2.12;56.03
30708;BME280;17458;48.958;8.284;2023-02-28T04:51:13;101190.88;;;2.20;56.29
30708;BME280;17458;48.958;8.284;2023-02-28T04:53:58;101184.84;;;1.85;56.35
30708;BME280;17458;48.958;8.284;2023-02-28T04:56:42;101189.19;;;2.20;56.00
30708;BME280;17458;48.958;8.284;2023-02-28T04:59:26;101194.59;;;2.13;56.13
30708;BME280;17458;48.958;8.284;2023-02-28T05:02:10;101190.84;;;2.28;55.30
30708;BME280;17458;48.958;8.284;2023-02-28T05:04:54;101191.28;;;2.33;55.48
30708;BME280;17458;48.958;8.284;2023-02-28T05:07:38;101206.63;;;2.11;56.02
30708;BME280;17458;48.958;8.284;2023-02-28T05:10:22;101196.59;;;2.24;55.31
30708;BME280;17458;48.958;8.284;2023-02-28T05:13:06;101200.75;;;2.13;55.81
30708;BME280;17458;48.958;8.284;2023-02-28T05:15:53;101203.34;;;1.95;56.81
30708;BME280;17458;48.958;8.284;2023-02-28T05:18:38;101199.78;;;1.94;56.74
30708;BME280;17458;48.958;8.284;2023-02-28T05:21:32;101201.75;;;2.05;56.51
30708;BME280;17458;48.958;8.284;2023-02-28T05:24:16;101206.66;;;1.66;57.07
30708;BME280;17458;48.958;8.284;2023-02-28T05:27:06;101202.09;;;1.83;57.02
30708;BME280;17458;48.958;8.284;2023-02-28T05:29:49;101205.78;;;1.93;56.82
30708;BME280;17458;48.958;8.284;2023-02-28T05:32:33;101210.16;;;2.20;56.18
30708;BME280;17458;48.958;8.284;2023-02-28T05:35:17;101214.56;;;2.30;55.68
30708;BME280;17458;48.958;8.284;2023-02-28T05:38:02;101212.31;;;2.24;55.77
30708;BME280;17458;48.958;8.284;2023-02-28T05:40:46;101215.91;;;2.07;56.31
30708;BME280;17458;48.958;8.284;2023-02-28T05:43:29;101211.88;;;2.11;56.11
30708;BME280;17458;48.958;8.284;2023-02-28T05:46:14;101214.94;;;2.24;56.18
30708;BME280;17458;48.958;8.284;2023-02-28T05:48:58;101207.59;;;2.03;56.11
30708;BME280;17458;48.958;8.284;2023-02-28T05:51:43;101210.06;;;2.01;56.64
30708;BME280;17458;48.958;8.284;2023-02-28T05:54:27;101210.69;;;2.07;56.20
30708;BME280;17458;48.958;8.284;2023-02-28T05:57:11;101206.47;;;2.18;56.22
30708;BME280;17458;48.958;8.284;2023-02-28T05:59:55;101210.81;;;2.09;56.37
30708;BME280;17458;48.958;8.284;2023-02-28T06:02:39;101206.31;;;2.17;56.37
30708;BME280;17458;48.958;8.284;2023-02-28T06:05:24;101200.66;;;2.03;56.59
30708;BME280;17458;48.958;8.284;2023-02-28T06:08:08;101211.56;;;2.17;56.49
30708;BME280;17458;48.958;8.284;2023-02-28T06:10:52;101203.53;;;2.24;56.26
30708;BME280;17458;48.958;8.284;2023-02-28T06:13:36;101215.63;;;2.04;56.70
30708;BME280;17458;48.958;8.284;2023-02-28T06:16:21;101213.91;;;2.41;55.75
30708;BME280;17458;48.958;8.284;2023-02-28T06:19:05;101220.09;;;1.97;56.56
30708;BME280;17458;48.958;8.284;2023-02-28T06:21:49;101220.78;;;2.22;56.19
30708;BME280;17458;48.958;8.284;2023-02-28T06:24:35;101224.81;;;2.18;56.44
30708;BME280;17458;48.958;8.284;2023-02-28T06:27:19;101218.84;;;2.02;57.16
30708;BME280;17458;48.958;8.284;2023-02-28T06:30:04;101218.22;;;2.04;57.07
30708;BME280;17458;48.958;8.284;2023-02-28T06:32:48;101229.94;;;1.99;57.28
30708;BME280;17458;48.958;8.284;2023-02-28T06:35:33;101224.50;;;2.15;56.78
30708;BME280;17458;48.958;8.284;2023-02-28T06:38:17;101217.72;;;2.44;56.27
30708;BME280;17458;48.958;8.284;2023-02-28T06:41:02;101218.34;;;2.51;56.46
30708;BME280;17458;48.958;8.284;2023-02-28T06:43:47;101222.25;;;2.64;55.58
30708;BME280;17458;48.958;8.284;2023-02-28T06:46:32;101226.97;;;2.49;55.84
30708;BME280;17458;48.958;8.284;2023-02-28T06:49:16;101226.06;;;2.40;56.19
30708;BME280;17458;48.958;8.284;2023-02-28T06:52:02;101243.56;;;2.59;55.66
30708;BME280;17458;48.958;8.284;2023-02-28T06:54:46;101245.88;;;2.64;55.95
30708;BME280;17458;48.958;8.284;2023-02-28T06:57:31;101250.59;;;2.41;55.80
30708;BME280;17458;48.958;8.284;2023-02-28T07:00:16;101243.25;;;2.28;56.19
30708;BME280;17458;48.958;8.284;2023-02-28T07:03:00;101245.63;;;2.53;55.75
30708;BME280;17458;48.958;8.284;2023-02-28T07:05:45;101239.09;;;2.85;55.37
30708;BME280;17458;48.958;8.284;2023-02-28T07:08:29;101253.72;;;2.64;55.18
30708;BME280;17458;48.958;8.284;2023-02-28T07:11:13;101252.41;;;2.78;55.14
30708;BME280;17458;48.958;8.284;2023-02-28T07:13:57;101261.47;;;2.81;54.71
30708;BME280;17458;48.958;8.284;2023-02-28T07:16:41;101254.84;;;3.41;53.75
30708;BME280;17458;48.958;8.284;2023-02-28T07:19:25;101249.44;;;2.83;54.62
30708;BME280;17458;48.958;8.284;2023-02-28T07:22:09;101256.13;;;2.80;54.67
30708;BME280;17458;48.958;8.284;2023-02-28T07:24:53;101260.56;;;2.81;54.63
30708;BME280;17458;48.958;8.284;2023-02-28T07:27:37;101258.31;;;2.67;54.84
30708;BME280;17458;48.958;8.284;2023-02-28T07:30:21;101263.09;;;2.71;55.14
30708;BME280;17458;48.958;8.284;2023-02-28T07:33:05;101261.69;;;3.20;53.92
30708;BME280;17458;48.958;8.284;2023-02-28T07:35:49;101261.91;;;2.59;55.20
30708;BME280;17458;48.958;8.284;2023-02-28T07:38:35;101260.31;;;2.69;55.18
30708;BME280;17458;48.958;8.284;2023-02-28T07:41:21;101257.94;;;2.81;54.87
30708;BME280;17458;48.958;8.284;2023-02-28T07:44:05;101256.88;;;2.79;54.50
30708;BME280;17458;48.958;8.284;2023-02-28T07:46:49;101262.50;;;2.92;54.38
30708;BME280;17458;48.958;8.284;2023-02-28T07:49:37;101262.78;;;2.95;54.17
30708;BME280;17458;48.958;8.284;2023-02-28T07:52:21;101262.00;;;2.96;54.25
30708;BME280;17458;48.958;8.284;2023-02-28T07:55:10;101264.06;;;2.90;54.29
30708;BME280;17458;48.958;8.284;2023-02-28T07:57:54;101270.53;;;3.12;54.43
30708;BME280;17458;48.958;8.284;2023-02-28T08:00:39;101268.78;;;3.22;53.69
30708;BME280;17458;48.958;8.284;2023-02-28T08:03:24;101270.31;;;3.01;53.84
30708;BME280;17458;48.958;8.284;2023-02-28T08:06:19;101258.34;;;3.50;52.98
30708;BME280;17458;48.958;8.284;2023-02-28T08:09:03;101271.00;;;2.90;54.17
30708;BME280;17458;48.958;8.284;2023-02-28T08:11:47;101264.09;;;3.28;53.58
30708;BME280;17458;48.958;8.284;2023-02-28T08:14:31;101269.63;;;3.49;52.92
30708;BME280;17458;48.958;8.284;2023-02-28T08:17:15;101269.00;;;3.33;53.21
30708;BME280;17458;48.958;8.284;2023-02-28T08:19:59;101270.59;;;3.04;54.14
30708;BME280;17458;48.958;8.284;2023-02-28T08:22:43;101277.41;;;3.02;53.40
30708;BME280;17458;48.958;8.284;2023-02-28T08:25:27;101278.63;;;3.05;53.47
30708;BME280;17458;48.958;8.284;2023-02-28T08:28:11;101274.56;;;3.09;53.80
30708;BME280;17458;48.958;8.284;2023-02-28T08:30:55;101279.63;;;3.72;52.25
30708;BME280;17458;48.958;8.284;2023-02-28T08:33:40;101284.91;;;3.35;52.81
30708;BME280;17458;48.958;8.284;2023-02-28T08:36:26;101279.63;;;3.53;52.28
30708;BME280;17458;48.958;8.284;2023-02-28T08:39:12;101276.00;;;3.05;53.06
30708;BME280;17458;48.958;8.284;2023-02-28T08:41:57;101283.53;;;3.30;52.80
30708;BME280;17458;48.958;8.284;2023-02-28T08:44:40;101287.63;;;3.74;52.24
30708;BME280;17458;48.958;8.284;2023-02-28T08:47:25;101292.41;;;3.40;52.26
30708;BME280;17458;48.958;8.284;2023-02-28T08:50:09;101286.94;;;3.29;52.54
30708;BME280;17458;48.958;8.284;2023-02-28T08:52:53;101289.56;;;3.47;52.05
30708;BME280;17458;48.958;8.284;2023-02-28T08:55:37;101293.09;;;3.29;52.63
30708;BME280;17458;48.958;8.284;2023-02-28T08:58:21;101291.56;;;3.50;52.44
30708;BME280;17458;48.958;8.284;2023-02-28T09:01:10;101292.75;;;3.53;53.09
30708;BME280;17458;48.958;8.284;2023-02-28T09:03:56;101298.50;;;3.68;51.77
30708;BME280;17458;48.958;8.284;2023-02-28T09:06:40;101288.00;;;3.68;51.69
30708;BME280;17458;48.958;8.284;2023-02-28T09:09:24;101285.69;;;3.81;51.67
30708;BME280;17458;48.958;8.284;2023-02-28T09:12:08;101294.47;;;4.01;51.48
30708;BME280;17458;48.958;8.284;2023-02-28T09:14:53;101292.13;;;4.04;50.88
30708;BME280;17458;48.958;8.284;2023-02-28T09:17:40;101291.38;;;4.15;50.91
30708;BME280;17458;48.958;8.284;2023-02-28T09:20:24;101288.50;;;3.93;51.03
30708;BME280;17458;48.958;8.284;2023-02-28T09:23:09;101297.88;;;4.00;51.38
30708;BME280;17458;48.958;8.284;2023-02-28T09:25:54;101294.88;;;4.34;50.82
30708;BME280;17458;48.958;8.284;2023-02-28T09:28:38;101295.94;;;4.07;51.16
30708;BME280;17458;48.958;8.284;2023-02-28T09:31:25;101285.88;;;4.22;50.38
30708;BME280;17458;48.958;8.284;2023-02-28T09:34:09;101288.38;;;4.59;49.89
30708;BME280;17458;48.958;8.284;2023-02-28T09:36:53;101283.53;;;3.96;50.93
30708;BME280;17458;48.958;8.284;2023-02-28T09:39:38;101288.78;;;3.96;51.03
30708;BME280;17458;48.958;8.284;2023-02-28T09:42:33;101277.75;;;3.71;51.92
30708;BME280;17458;48.958;8.284;2023-02-28T09:48:16;101280.50;;;3.91;51.23
30708;BME280;17458;48.958;8.284;2023-02-28T09:51:28;101282.84;;;4.56;49.84
30708;BME280;17458;48.958;8.284;2023-02-28T09:54:17;101280.13;;;5.06;48.51
30708;BME280;17458;48.958;8.284;2023-02-28T10:00:21;101279.59;;;5.10;49.17
30708;BME280;17458;48.958;8.284;2023-02-28T10:03:35;101289.09;;;4.87;48.47
30708;BME280;17458;48.958;8.284;2023-02-28T10:06:26;101282.38;;;5.31;47.94
30708;BME280;17458;48.958;8.284;2023-02-28T10:09:31;101291.88;;;5.29;47.83
30708;BME280;17458;48.958;8.284;2023-02-28T10:12:17;101288.81;;;4.94;47.05
30708;BME280;17458;48.958;8.284;2023-02-28T10:15:03;101305.66;;;4.96;47.41
30708;BME280;17458;48.958;8.284;2023-02-28T10:17:48;101297.44;;;4.53;48.35
30708;BME280;17458;48.958;8.284;2023-02-28T10:20:39;101285.94;;;5.12;47.23
30708;BME280;17458;48.958;8.284;2023-02-28T10:23:35;101299.50;;;5.26;47.82
30708;BME280;17458;48.958;8.284;2023-02-28T10:26:21;101301.34;;;5.27;47.56
30708;BME280;17458;48.958;8.284;2023-02-28T10:29:08;101308.56;;;4.89;47.81
30708;BME280;17458;48.958;8.284;2023-02-28T10:31:52;101305.41;;;5.34;46.97
30708;BME280;17458;48.958;8.284;2023-02-28T10:34:36;101304.22;;;5.20;47.04
30708;BME280;17458;48.958;8.284;2023-02-28T10:37:20;101308.28;;;4.76;47.56
30708;BME280;17458;48.958;8.284;2023-02-28T10:40:06;101291.00;;;4.59;47.82
30708;BME280;17458;48.958;8.284;2023-02-28T10:42:55;101291.34;;;5.13;47.46
30708;BME280;17458;48.958;8.284;2023-02-28T10:46:26;101292.31;;;5.86;46.70
30708;BME280;17458;48.958;8.284;2023-02-28T10:49:15;101304.31;;;5.62;46.60
30708;BME280;17458;48.958;8.284;2023-02-28T10:52:01;101303.19;;;5.18;47.04
30708;BME280;17458;48.958;8.284;2023-02-28T10:54:45;101305.94;;;4.99;47.75
30708;BME280;17458;48.958;8.284;2023-02-28T10:57:32;101307.53;;;5.38;47.13
30708;BME280;17458;48.958;8.284;2023-02-28T11:00:19;101308.19;;;5.46;46.86
30708;BME280;17458;48.958;8.284;2023-02-28T11:03:23;101304.88;;;5.08;47.90
30708;BME280;17458;48.958;8.284;2023-02-28T11:06:19;101306.19;;;4.92;47.82
30708;BME280;17458;48.958;8.284;2023-02-28T11:09:25;101299.22;;;5.23;47.58
30708;BME280;17458;48.958;8.284;2023-02-28T11:12:20;101297.97;;;5.91;46.71
30708;BME280;17458;48.958;8.284;2023-02-28T11:15:21;101296.34;;;5.30;47.73
30708;BME280;17458;48.958;8.284;2023-02-28T11:20:57;101289.63;;;5.24;47.62
30708;BME280;17458;48.958;8.284;2023-02-28T11:23:43;101291.72;;;5.08;48.13
30708;BME280;17458;48.958;8.284;2023-02-28T11:26:39;101293.78;;;5.73;47.21
30708;BME280;17458;48.958;8.284;2023-02-28T11:29:26;101282.81;;;5.78;47.33
30708;BME280;17458;48.958;8.284;2023-02-28T11:32:19;101287.22;;;5.57;47.15
30708;BME280;17458;48.958;8.284;2023-02-28T11:35:17;101283.94;;;5.60;47.55
30708;BME280;17458;48.958;8.284;2023-02-28T11:38:11;101284.81;;;5.70;47.30
30708;BME280;17458;48.958;8.284;2023-02-28T11:44:05;101283.34;;;5.94;46.05
30708;BME280;17458;48.958;8.284;2023-02-28T11:47:07;101271.34;;;5.98;46.54
30708;BME280;17458;48.958;8.284;2023-02-28T11:53:01;101272.94;;;5.76;46.55
30708;BME280;17458;48.958;8.284;2023-02-28T11:55:56;101274.50;;;5.84;46.69
30708;BME280;17458;48.958;8.284;2023-02-28T12:18:10;101268.31;;;6.25;44.82
30708;BME280;17458;48.958;8.284;2023-02-28T12:23:52;101259.38;;;7.45;42.88
30708;BME280;17458;48.958;8.284;2023-02-28T12:26:42;101270.84;;;7.46;42.90
30708;BME280;17458;48.958;8.284;2023-02-28T12:29:36;101250.59;;;6.56;43.76
30708;BME280;17458;48.958;8.284;2023-02-28T12:32:31;101255.09;;;6.57;43.54
30708;BME280;17458;48.958;8.284;2023-02-28T12:35:25;101251.09;;;6.09;44.74
30708;BME280;17458;48.958;8.284;2023-02-28T12:38:18;101242.22;;;6.84;43.68
30708;BME280;17458;48.958;8.284;2023-02-28T12:41:08;101246.28;;;6.47;44.98
30708;BME280;17458;48.958;8.284;2023-02-28T12:44:12;101238.47;;;6.58;44.18
30708;BME280;17458;48.958;8.284;2023-02-28T12:47:02;101247.97;;;6.90;44.00
30708;BME280;17458;48.958;8.284;2023-02-28T12:50:04;101240.56;;;6.74;43.61
30708;BME280;17458;48.958;8.284;2023-02-28T12:53:00;101226.31;;;6.17;44.53
30708;BME280;17458;48.958;8.284;2023-02-28T12:55:59;101230.41;;;6.13;44.93
30708;BME280;17458;48.958;8.284;2023-02-28T12:58:49;101230.53;;;6.58;44.20
30708;BME280;17458;48.958;8.284;2023-02-28T13:01:42;101221.84;;;7.16;43.43
30708;BME280;17458;48.958;8.284;2023-02-28T13:04:45;101220.47;;;7.09;43.46
30708;BME280;17458;48.958;8.284;2023-02-28T13:10:55;101222.16;;;7.66;41.97
30708;BME280;17458;48.958;8.284;2023-02-28T13:13:44;101216.50;;;7.26;42.71
30708;BME280;17458;48.958;8.284;2023-02-28T13:19:35;101221.56;;;7.35;42.26
30708;BME280;17458;48.958;8.284;2023-02-28T13:29:20;101218.22;;;7.37;42.49
30708;BME280;17458;48.958;8.284;2023-02-28T13:38:09;101209.28;;;7.70;41.69
30708;BME280;17458;48.958;8.284;2023-02-28T13:44:24;101208.69;;;7.98;42.46
30708;BME280;17458;48.958;8.284;2023-02-28T13:47:21;101215.25;;;7.79;41.84
30708;BME280;17458;48.958;8.284;2023-02-28T13:50:38;101212.56;;;8.03;41.64
30708;BME280;17458;48.958;8.284;2023-02-28T13:57:15;101206.06;;;7.98;41.34
30708;BME280;17458;48.958;8.284;2023-02-28T14:03:14;101214.00;;;7.63;41.91
30708;BME280;17458;48.958;8.284;2023-02-28T14:11:56;101207.78;;;7.86;41.70
30708;BME280;17458;48.958;8.284;2023-02-28T14:17:24;101214.22;;;7.42;42.73
30708;BME280;17458;48.958;8.284;2023-02-28T14:20:15;101210.19;;;7.94;42.23
30708;BME280;17458;48.958;8.284;2023-02-28T14:23:11;101220.56;;;7.79;42.63
30708;BME280;17458;48.958;8.284;2023-02-28T14:38:23;101216.63;;;7.74;42.34
30708;BME280;17458;48.958;8.284;2023-02-28T14:41:30;101207.53;;;7.94;42.15
30708;BME280;17458;48.958;8.284;2023-02-28T14:44:23;101212.44;;;8.36;41.67
30708;BME280;17458;48.958;8.284;2023-02-28T14:47:15;101206.03;;;7.86;42.25
30708;BME280;17458;48.958;8.284;2023-02-28T14:50:01;101194.56;;;7.62;42.63
30708;BME280;17458;48.958;8.284;2023-02-28T14:52:45;101203.22;;;7.71;42.30
30708;BME280;17458;48.958;8.284;2023-02-28T14:55:31;101201.16;;;8.27;41.83
30708;BME280;17458;48.958;8.284;2023-02-28T15:01:10;101192.03;;;7.75;42.51
30708;BME280;17458;48.958;8.284;2023-02-28T15:04:03;101201.78;;;8.11;42.22
30708;BME280;17458;48.958;8.284;2023-02-28T15:07:08;101204.44;;;7.76;42.49
30708;BME280;17458;48.958;8.284;2023-02-28T15:10:07;101191.41;;;8.03;41.94
30708;BME280;17458;48.958;8.284;2023-02-28T15:13:00;101196.16;;;7.60;42.66
30708;BME280;17458;48.958;8.284;2023-02-28T15:18:47;101203.44;;;7.39;43.23
30708;BME280;17458;48.958;8.284;2023-02-28T15:21:42;101197.06;;;7.14;43.33
30708;BME280;17458;48.958;8.284;2023-02-28T15:24:35;101199.41;;;7.56;42.80
30708;BME280;17458;48.958;8.284;2023-02-28T15:27:23;101203.63;;;7.31;43.27
30708;BME280;17458;48.958;8.284;2023-02-28T15:30:17;101199.97;;;7.52;43.30
30708;BME280;17458;48.958;8.284;2023-02-28T15:33:18;101201.13;;;7.67;42.73
30708;BME280;17458;48.958;8.284;2023-02-28T15:36:06;101192.00;;;7.87;42.36
30708;BME280;17458;48.958;8.284;2023-02-28T15:38:51;101194.66;;;7.87;42.07
30708;BME280;17458;48.958;8.284;2023-02-28T15:41:37;101197.56;;;7.67;42.54
30708;BME280;17458;48.958;8.284;2023-02-28T15:44:28;101199.63;;;7.59;42.39
30708;BME280;17458;48.958;8.284;2023-02-28T15:47:20;101196.19;;;7.83;42.52
30708;BME280;17458;48.958;8.284;2023-02-28T15:50:10;101199.84;;;7.51;42.77
30708;BME280;17458;48.958;8.284;2023-02-28T15:52:57;101199.28;;;7.55;42.27
30708;BME280;17458;48.958;8.284;2023-02-28T15:55:41;101200.09;;;7.42;43.09
30708;BME280;17458;48.958;8.284;2023-02-28T15:58:29;101198.47;;;7.44;43.00
30708;BME280;17458;48.958;8.284;2023-02-28T16:01:19;101190.31;;;7.64;42.62
30708;BME280;17458;48.958;8.284;2023-02-28T16:04:10;101193.66;;;7.85;42.79
30708;BME280;17458;48.958;8.284;2023-02-28T16:09:43;101208.72;;;7.39;43.15
30708;BME280;17458;48.958;8.284;2023-02-28T16:12:30;101204.22;;;7.50;43.11
30708;BME280;17458;48.958;8.284;2023-02-28T16:15:26;101206.25;;;7.31;43.21
30708;BME280;17458;48.958;8.284;2023-02-28T16:18:12;101199.63;;;7.36;43.24
30708;BME280;17458;48.958;8.284;2023-02-28T16:20:56;101215.09;;;7.31;43.12
30708;BME280;17458;48.958;8.284;2023-02-28T16:23:43;101211.88;;;7.12;43.44
30708;BME280;17458;48.958;8.284;2023-02-28T16:26:27;101216.88;;;7.66;42.67
30708;BME280;17458;48.958;8.284;2023-02-28T16:29:34;101213.50;;;7.45;42.91
30708;BME280;17458;48.958;8.284;2023-02-28T16:32:18;101215.09;;;7.31;43.58
30708;BME280;17458;48.958;8.284;2023-02-28T16:35:03;101219.84;;;7.35;43.40
30708;BME280;17458;48.958;8.284;2023-02-28T16:37:48;101214.91;;;7.40;42.95
30708;BME280;17458;48.958;8.284;2023-02-28T16:40:35;101214.25;;;6.97;43.79
30708;BME280;17458;48.958;8.284;2023-02-28T16:43:23;101228.00;;;7.27;43.71
30708;BME280;17458;48.958;8.284;2023-02-28T16:46:10;101225.59;;;6.85;43.74
30708;BME280;17458;48.958;8.284;2023-02-28T16:48:57;101221.03;;;7.05;44.08
30708;BME280;17458;48.958;8.284;2023-02-28T16:51:41;101225.84;;;6.88;44.05
30708;BME280;17458;48.958;8.284;2023-02-28T16:54:25;101229.44;;;7.11;43.57
30708;BME280;17458;48.958;8.284;2023-02-28T16:57:26;101227.34;;;6.96;44.28
30708;BME280;17458;48.958;8.284;2023-02-28T17:00:12;101234.84;;;7.01;44.30
30708;BME280;17458;48.958;8.284;2023-02-28T17:02:57;101232.31;;;6.69;44.42